Time;durP1;ratioP1;P1;durP2;ratioP2;P2;SDS_P1;SDS_P2;PMS_P1;PMS_P2;Temp;Humidity;BMP_temperature;BMP_pressure;BME280_temperature;BME280_humidity;BME280_pressure;Samples;Min_cycle;Max_cycle;Signal;HPM_P1;HPM_P2
2022/04/19 00:00:39;;;;;;;10.73;5.78;;;11.50;62.50;;;;;;4973584;28;20039;-89
2022/04/19 00:03:06;;;;;;;10.05;4.85;;;11.30;63.10;;;;;;4973385;28;20043;-90
2022/04/19 00:05:32;;;;;;;11.48;7.03;;;11.20;63.80;;;;;;4957431;28;20129;-90
2022/04/19 00:08:00;;;;;;;9.52;5.13;;;11.20;65.60;;;;;;4973454;28;20043;-90
2022/04/19 00:10:28;;;;;;;11.90;5.22;;;11.10;66.20;;;;;;4956644;28;20050;-90
2022/04/19 00:12:56;;;;;;;10.57;6.57;;;11.00;66.30;;;;;;4973515;28;20046;-90
2022/04/19 00:15:22;;;;;;;10.77;4.60;;;11.10;68.10;;;;;;4973573;28;20582;-90
2022/04/19 00:17:48;;;;;;;9.57;4.85;;;11.00;67.40;;;;;;4957067;28;20057;-90
2022/04/19 00:20:14;;;;;;;8.98;4.63;;;10.90;67.70;;;;;;4972387;28;20054;-90
2022/04/19 00:22:39;;;;;;;13.10;6.60;;;10.80;69.00;;;;;;4973012;28;20039;-90
2022/04/19 00:25:06;;;;;;;12.05;5.93;;;10.80;69.60;;;;;;4973025;28;20043;-90
2022/04/19 00:27:33;;;;;;;10.20;5.43;;;10.80;70.10;;;;;;4973264;28;20046;-90
2022/04/19 00:29:59;;;;;;;10.38;5.20;;;10.80;71.60;;;;;;4956685;28;20050;-91
2022/04/19 00:32:24;;;;;;;10.52;5.15;;;10.70;73.10;;;;;;4956586;28;20039;-90
2022/04/19 00:34:51;;;;;;;12.07;5.35;;;10.60;76.10;;;;;;4973154;28;20529;-90
2022/04/19 00:37:20;;;;;;;10.25;4.85;;;10.50;77.30;;;;;;4972851;28;20166;-90
2022/04/19 00:39:46;;;;;;;10.35;4.90;;;10.40;76.90;;;;;;4972972;28;20412;-90
2022/04/19 00:42:11;;;;;;;8.98;4.07;;;10.30;77.00;;;;;;4956608;28;20523;-90
2022/04/19 00:44:39;;;;;;;9.80;4.38;;;10.10;77.60;;;;;;4972641;28;20484;-90
2022/04/19 00:47:09;;;;;;;11.32;5.15;;;9.90;79.10;;;;;;4972735;28;20118;-89
2022/04/19 00:49:42;;;;;;;9.85;5.38;;;9.90;80.10;;;;;;4972579;28;20396;-89
2022/04/19 00:52:08;;;;;;;12.98;5.90;;;9.90;79.70;;;;;;4956250;28;20058;-89
2022/04/19 00:54:34;;;;;;;11.20;5.38;;;10.00;77.50;;;;;;4972519;28;20039;-90
2022/04/19 00:57:01;;;;;;;11.57;4.97;;;10.00;76.50;;;;;;4956508;28;20038;-89
2022/04/19 00:59:26;;;;;;;11.55;5.25;;;10.00;75.40;;;;;;4956392;28;20034;-89
2022/04/19 01:01:52;;;;;;;11.10;5.25;;;10.00;77.00;;;;;;4972332;28;20039;-90
2022/04/19 01:04:18;;;;;;;12.15;6.22;;;10.00;76.50;;;;;;4972375;28;20408;-90
2022/04/19 01:06:45;;;;;;;10.27;4.95;;;10.00;77.40;;;;;;4972197;28;20488;-89
2022/04/19 01:09:11;;;;;;;12.25;5.18;;;9.90;78.20;;;;;;4956298;28;20042;-89
2022/04/19 01:14:24;;;;;;;9.90;5.38;;;9.70;78.60;;;;;;4972079;28;20046;-89
2022/04/19 01:16:50;;;;;;;12.75;6.53;;;9.60;78.90;;;;;;4972083;28;20039;-89
2022/04/19 01:19:16;;;;;;;10.93;5.63;;;9.50;80.00;;;;;;4972090;28;20064;-89
2022/04/19 01:21:45;;;;;;;11.25;5.85;;;9.50;79.50;;;;;;4955552;28;20053;-90
2022/04/19 01:24:18;;;;;;;10.70;5.68;;;9.50;80.30;;;;;;4971975;28;20099;-89
2022/04/19 01:26:45;;;;;;;12.43;6.38;;;9.40;81.60;;;;;;4972095;28;20463;-89
2022/04/19 01:29:12;;;;;;;11.90;5.82;;;9.40;81.70;;;;;;4972022;28;20070;-90
2022/04/19 01:31:39;;;;;;;12.75;6.15;;;9.30;83.60;;;;;;4971111;28;20042;-90
2022/04/19 01:34:05;;;;;;;12.85;6.22;;;9.20;84.00;;;;;;4971838;28;20042;-89
2022/04/19 01:36:34;;;;;;;11.55;6.07;;;9.10;84.30;;;;;;4978780;28;20450;-90
2022/04/19 01:39:00;;;;;;;11.90;6.47;;;9.00;84.90;;;;;;4991550;28;20046;-90
2022/04/19 01:41:26;;;;;;;13.80;6.55;;;9.00;84.70;;;;;;4991058;28;20034;-90
2022/04/19 01:43:51;;;;;;;12.65;7.18;;;9.00;84.80;;;;;;5024197;28;20492;-90
2022/04/19 01:46:17;;;;;;;12.80;6.75;;;8.90;85.10;;;;;;5007243;28;20039;-89
2022/04/19 01:48:43;;;;;;;13.70;6.53;;;8.90;85.40;;;;;;5024063;28;20064;-89
2022/04/19 01:51:08;;;;;;;12.30;6.93;;;8.80;86.00;;;;;;4974602;28;20500;-90
2022/04/19 01:53:34;;;;;;;13.15;7.15;;;8.70;86.90;;;;;;4991501;28;20046;-90
2022/04/19 01:55:59;;;;;;;14.23;6.97;;;8.70;88.00;;;;;;4991007;28;20552;-89
2022/04/19 01:58:25;;;;;;;14.50;7.05;;;8.60;89.40;;;;;;4991258;28;20046;-89
2022/04/19 02:00:50;;;;;;;12.70;6.57;;;8.50;89.80;;;;;;4974442;28;20046;-89
2022/04/19 02:03:17;;;;;;;12.70;6.90;;;8.50;90.20;;;;;;4990794;28;20041;-89
2022/04/19 02:05:43;;;;;;;13.98;7.90;;;8.40;90.30;;;;;;5023940;28;20057;-90
2022/04/19 02:08:08;;;;;;;13.25;7.32;;;8.40;90.40;;;;;;4991125;28;20038;-90
2022/04/19 02:10:34;;;;;;;15.90;7.68;;;8.30;90.50;;;;;;4974685;28;20089;-89
2022/04/19 02:12:59;;;;;;;12.90;7.03;;;8.30;90.60;;;;;;4991083;28;20100;-89
2022/04/19 02:15:25;;;;;;;14.00;8.10;;;8.30;90.60;;;;;;4990865;28;20527;-90
2022/04/19 02:17:50;;;;;;;14.18;8.13;;;8.30;90.50;;;;;;4990895;28;20046;-89
2022/04/19 02:20:18;;;;;;;14.02;8.10;;;8.30;90.60;;;;;;4974281;28;20431;-90
2022/04/19 02:22:44;;;;;;;15.10;7.93;;;8.30;90.70;;;;;;4990836;28;20038;-90
2022/04/19 02:25:11;;;;;;;15.32;8.45;;;8.30;90.80;;;;;;5023558;28;20399;-89
2022/04/19 02:27:39;;;;;;;14.93;7.93;;;8.30;91.60;;;;;;4990916;28;20038;-89
2022/04/19 02:30:13;;;;;;;15.07;8.90;;;8.20;91.90;;;;;;4990354;28;20035;-90
2022/04/19 02:32:43;;;;;;;16.63;8.25;;;8.20;91.90;;;;;;5023914;28;20060;-90
2022/04/19 02:35:09;;;;;;;14.70;8.23;;;8.20;91.60;;;;;;4990752;28;20046;-90
2022/04/19 02:37:35;;;;;;;15.10;8.27;;;8.20;91.60;;;;;;5023550;28;20048;-90
2022/04/19 02:40:01;;;;;;;14.55;7.97;;;8.20;91.70;;;;;;4990309;28;20046;-90
2022/04/19 02:42:26;;;;;;;12.48;7.10;;;8.20;92.30;;;;;;4975675;28;20046;-90
2022/04/19 02:44:52;;;;;;;12.65;6.75;;;8.10;92.90;;;;;;4994650;28;20543;-89
2022/04/19 02:47:17;;;;;;;12.77;7.72;;;8.00;93.10;;;;;;4994245;28;20046;-89
2022/04/19 02:49:46;;;;;;;13.52;7.50;;;8.00;93.40;;;;;;4994256;28;20046;-90
2022/04/19 02:52:11;;;;;;;14.68;7.50;;;7.90;93.40;;;;;;5027134;28;20096;-90
2022/04/19 02:54:37;;;;;;;12.45;7.10;;;7.80;93.60;;;;;;4994640;28;20034;-90
2022/04/19 02:57:04;;;;;;;14.82;7.70;;;7.80;94.10;;;;;;4994531;28;20530;-89
2022/04/19 02:59:29;;;;;;;14.25;8.48;;;7.70;94.10;;;;;;5005446;28;20026;-89
2022/04/19 03:01:55;;;;;;;13.57;7.55;;;7.60;94.40;;;;;;5009832;28;20030;-89
2022/04/19 03:04:21;;;;;;;13.02;7.80;;;7.60;94.60;;;;;;5003456;28;20042;-89
2022/04/19 03:06:47;;;;;;;13.25;7.60;;;7.60;94.80;;;;;;5003562;28;20018;-89
2022/04/19 03:09:13;;;;;;;15.73;7.43;;;7.50;94.90;;;;;;4994529;28;20042;-89
2022/04/19 03:11:38;;;;;;;12.75;6.82;;;7.50;94.90;;;;;;4993834;28;20034;-89
2022/04/19 03:14:06;;;;;;;12.77;6.85;;;7.40;95.00;;;;;;4993722;28;20085;-89
2022/04/19 03:16:32;;;;;;;12.02;6.97;;;7.40;95.00;;;;;;4993737;28;20529;-89
2022/04/19 03:18:58;;;;;;;12.68;7.28;;;7.30;95.20;;;;;;4993799;28;20038;-89
2022/04/19 03:21:23;;;;;;;13.05;7.47;;;7.30;95.50;;;;;;4993300;28;20046;-89
2022/04/19 03:29:17;;;;;;;15.60;8.77;;;7.20;95.60;;;;;;4993591;28;20097;-89
2022/04/19 03:31:43;;;;;;;15.27;9.45;;;7.20;95.80;;;;;;4993193;28;20046;-89
2022/04/19 03:34:08;;;;;;;13.63;7.75;;;7.20;95.80;;;;;;4993555;28;20050;-89
2022/04/19 03:36:35;;;;;;;14.73;7.88;;;7.10;95.90;;;;;;4993432;28;20038;-89
2022/04/19 03:39:00;;;;;;;15.02;7.63;;;7.10;96.10;;;;;;4993133;28;20042;-89
2022/04/19 03:41:26;;;;;;;12.00;7.28;;;7.00;96.20;;;;;;4992979;28;20049;-89
2022/04/19 03:43:52;;;;;;;14.85;7.50;;;7.00;96.40;;;;;;4993183;28;20046;-89
2022/04/19 03:46:18;;;;;;;12.73;7.85;;;7.00;96.60;;;;;;4993360;28;20129;-89
2022/04/19 03:48:44;;;;;;;16.25;8.43;;;7.00;96.80;;;;;;4992954;28;20578;-89
2022/04/19 03:51:09;;;;;;;17.75;8.50;;;7.00;96.90;;;;;;4992568;28;20039;-89
2022/04/19 03:53:35;;;;;;;14.63;8.73;;;7.00;96.90;;;;;;4992320;28;20042;-90
2022/04/19 03:56:03;;;;;;;13.60;8.05;;;7.00;96.90;;;;;;4993051;28;20129;-89
2022/04/19 03:58:30;;;;;;;16.15;8.60;;;7.00;96.90;;;;;;4994255;28;20500;-89
2022/04/19 04:00:56;;;;;;;13.68;8.88;;;6.90;97.00;;;;;;4992618;28;20073;-89
2022/04/19 04:03:23;;;;;;;14.52;8.80;;;6.90;96.80;;;;;;4992895;28;20074;-89
2022/04/19 04:05:49;;;;;;;15.98;8.68;;;6.90;96.90;;;;;;4992799;28;20117;-89
2022/04/19 04:08:14;;;;;;;15.40;8.65;;;6.90;96.80;;;;;;4992930;28;20561;-89
2022/04/19 04:10:40;;;;;;;14.98;8.70;;;6.80;96.90;;;;;;4992595;28;20066;-89
2022/04/19 04:13:05;;;;;;;13.20;8.38;;;6.80;96.90;;;;;;4992733;28;20137;-89
2022/04/19 04:15:31;;;;;;;15.75;9.50;;;6.80;97.00;;;;;;4992765;28;20042;-89
2022/04/19 04:17:57;;;;;;;16.27;9.35;;;6.80;97.10;;;;;;4992709;28;20401;-89
2022/04/19 04:20:22;;;;;;;13.93;9.10;;;6.90;97.30;;;;;;4992289;28;20042;-88
2022/04/19 04:22:48;;;;;;;15.15;8.98;;;6.90;97.40;;;;;;4991906;28;20166;-89
2022/04/19 04:25:14;;;;;;;17.58;9.60;;;6.90;97.40;;;;;;4992938;28;20053;-88
2022/04/19 04:27:39;;;;;;;14.80;8.77;;;7.00;97.30;;;;;;4992433;28;20034;-89
2022/04/19 04:30:06;;;;;;;16.63;9.25;;;7.00;97.10;;;;;;4992273;28;20038;-89
2022/04/19 04:32:32;;;;;;;14.02;8.10;;;7.10;97.10;;;;;;4992297;28;20089;-88
2022/04/19 04:34:58;;;;;;;14.52;8.15;;;7.00;97.10;;;;;;4992275;28;20050;-89
2022/04/19 04:37:23;;;;;;;13.20;7.18;;;6.90;97.00;;;;;;4992281;28;20050;-89
2022/04/19 04:39:49;;;;;;;12.57;7.43;;;6.70;97.10;;;;;;4992283;28;20042;-88
2022/04/19 04:42:15;;;;;;;16.58;7.75;;;6.70;97.20;;;;;;4998935;28;20042;-89
2022/04/19 04:44:41;;;;;;;16.80;8.02;;;6.60;97.30;;;;;;5024287;28;20042;-89
2022/04/19 04:49:51;;;;;;;18.60;8.85;;;6.50;97.60;;;;;;4991800;28;20046;-89
2022/04/19 04:52:18;;;;;;;14.43;8.60;;;6.50;97.70;;;;;;5024717;28;20038;-89
2022/04/19 04:54:44;;;;;;;18.23;9.73;;;6.50;97.80;;;;;;5024809;28;20120;-89
2022/04/19 04:57:10;;;;;;;12.98;7.88;;;6.50;98.00;;;;;;4991921;28;20070;-89
2022/04/19 04:59:36;;;;;;;15.55;8.68;;;6.60;98.00;;;;;;5024708;28;20034;-89
2022/04/19 05:02:03;;;;;;;15.73;8.82;;;6.60;98.00;;;;;;5008030;28;20254;-89
2022/04/19 05:04:29;;;;;;;14.90;7.78;;;6.60;98.00;;;;;;4991807;28;20050;-89
2022/04/19 05:06:54;;;;;;;16.05;9.43;;;6.70;98.00;;;;;;4991100;28;20084;-89
2022/04/19 05:09:20;;;;;;;15.45;9.02;;;6.70;97.90;;;;;;4975783;28;20538;-89
2022/04/19 05:11:46;;;;;;;17.38;8.43;;;6.80;97.90;;;;;;4975133;28;20553;-89
2022/04/19 05:14:13;;;;;;;14.20;7.97;;;6.70;97.80;;;;;;5024385;28;20138;-89
2022/04/19 05:16:39;;;;;;;16.13;9.10;;;6.70;97.90;;;;;;5024320;28;20070;-89
2022/04/19 05:19:05;;;;;;;14.65;8.95;;;6.70;98.00;;;;;;5024395;28;20128;-89
2022/04/19 05:21:30;;;;;;;12.52;7.80;;;6.80;98.10;;;;;;4975068;28;20042;-89
2022/04/19 05:23:56;;;;;;;17.95;8.63;;;6.80;98.20;;;;;;5024300;28;20047;-89
2022/04/19 05:26:24;;;;;;;17.67;8.88;;;6.80;98.30;;;;;;4991347;28;20121;-88
2022/04/19 05:28:50;;;;;;;14.48;8.52;;;6.90;98.40;;;;;;4975229;28;20453;-89
2022/04/19 05:31:16;;;;;;;15.32;8.20;;;6.90;98.40;;;;;;4990822;28;20120;-90
2022/04/19 05:33:41;;;;;;;16.60;9.20;;;7.00;98.30;;;;;;4998848;28;20089;-89
2022/04/19 05:36:07;;;;;;;16.20;8.38;;;7.00;98.50;;;;;;5011187;28;20084;-89
2022/04/19 05:38:32;;;;;;;14.20;8.65;;;7.10;98.60;;;;;;5010848;28;20093;-89
2022/04/19 05:40:58;;;;;;;15.77;8.07;;;7.10;98.60;;;;;;5010797;28;20069;-89
2022/04/19 05:43:25;;;;;;;15.63;7.70;;;7.20;98.60;;;;;;5010559;28;20415;-90
2022/04/19 05:45:50;;;;;;;13.13;7.93;;;7.30;98.60;;;;;;5010799;28;20096;-89
2022/04/19 05:48:16;;;;;;;13.82;8.20;;;7.40;98.50;;;;;;5010811;28;20395;-88
2022/04/19 05:50:41;;;;;;;13.43;7.68;;;7.50;98.40;;;;;;5010305;28;20954;-89
2022/04/19 05:53:07;;;;;;;12.82;7.05;;;7.60;98.40;;;;;;5010726;28;20034;-89
2022/04/19 05:55:32;;;;;;;13.45;7.63;;;7.70;98.30;;;;;;5010986;28;20045;-89
2022/04/19 05:57:59;;;;;;;12.20;6.85;;;7.80;98.40;;;;;;5010676;28;20042;-89
2022/04/19 06:00:25;;;;;;;15.18;7.15;;;7.90;98.40;;;;;;5010208;28;20511;-89
2022/04/19 06:05:34;;;;;;;13.90;7.22;;;8.10;98.50;;;;;;5009526;28;20038;-89
2022/04/19 06:08:00;;;;;;;13.95;6.97;;;8.20;98.50;;;;;;5010656;28;20503;-88
2022/04/19 06:10:26;;;;;;;11.63;6.97;;;8.30;98.60;;;;;;5010112;28;20045;-88
2022/04/19 06:12:51;;;;;;;12.90;7.50;;;8.40;98.60;;;;;;5010865;28;20053;-89
2022/04/19 06:15:17;;;;;;;15.63;7.03;;;8.50;98.60;;;;;;5010492;28;20545;-88
2022/04/19 06:17:43;;;;;;;15.50;7.72;;;8.60;98.70;;;;;;5012342;28;20037;-89
2022/04/19 06:20:10;;;;;;;12.48;6.78;;;8.70;98.80;;;;;;5014288;28;20494;-89
2022/04/19 06:22:36;;;;;;;15.77;8.20;;;8.80;98.80;;;;;;4997902;28;20053;-90
2022/04/19 06:25:02;;;;;;;13.07;6.32;;;8.90;98.80;;;;;;5014371;28;20038;-89
2022/04/19 06:27:28;;;;;;;11.88;6.68;;;9.00;98.60;;;;;;5014346;28;20038;-89
2022/04/19 06:29:56;;;;;;;14.65;6.60;;;9.10;98.70;;;;;;5014028;28;20053;-89
2022/04/19 06:32:22;;;;;;;14.60;6.70;;;9.20;98.60;;;;;;5014432;28;20518;-89
2022/04/19 06:34:52;;;;;;;13.20;6.93;;;9.30;98.50;;;;;;4997705;28;20052;-89
2022/04/19 06:37:19;;;;;;;12.57;6.80;;;9.50;98.90;;;;;;4997912;28;20034;-89
2022/04/19 06:39:45;;;;;;;12.20;6.25;;;9.60;98.60;;;;;;4997925;28;20073;-89
2022/04/19 06:42:11;;;;;;;11.45;6.15;;;9.70;98.40;;;;;;5013439;28;20080;-89
2022/04/19 06:44:36;;;;;;;15.35;5.85;;;9.80;98.70;;;;;;4997750;28;20038;-89
2022/04/19 06:47:03;;;;;;;13.93;6.35;;;9.90;98.70;;;;;;4997629;28;20034;-90
2022/04/19 06:49:28;;;;;;;14.30;6.93;;;10.00;98.70;;;;;;5013989;28;20041;-89
2022/04/19 06:51:54;;;;;;;11.13;6.63;;;10.10;98.50;;;;;;5013503;28;20067;-89
2022/04/19 06:54:20;;;;;;;14.20;6.82;;;10.20;98.20;;;;;;4993505;28;20042;-89
2022/04/19 06:56:45;;;;;;;12.98;6.70;;;10.30;97.90;;;;;;4994221;28;20043;-90
2022/04/19 06:59:12;;;;;;;11.90;6.05;;;10.50;97.70;;;;;;4994117;28;20496;-90
2022/04/19 07:01:40;;;;;;;12.52;6.43;;;10.60;97.60;;;;;;4993909;28;20046;-89
2022/04/19 07:04:07;;;;;;;12.00;6.20;;;10.60;97.30;;;;;;4993876;28;20096;-89
2022/04/19 07:06:33;;;;;;;12.48;6.63;;;10.80;97.20;;;;;;4994195;28;20503;-89
2022/04/19 07:08:59;;;;;;;12.57;6.93;;;10.90;97.20;;;;;;4993968;28;20543;-89
2022/04/19 07:11:25;;;;;;;11.10;6.35;;;11.00;97.10;;;;;;4993531;28;20038;-89
2022/04/19 07:13:50;;;;;;;12.93;6.30;;;11.10;96.90;;;;;;4993897;28;20038;-90
2022/04/19 07:16:16;;;;;;;11.93;6.68;;;11.20;96.70;;;;;;4993669;28;20042;-90
2022/04/19 07:18:41;;;;;;;12.20;6.55;;;11.30;96.70;;;;;;4994066;28;20134;-89
2022/04/19 07:26:38;;;;;;;11.30;6.20;;;11.70;96.10;;;;;;4993677;28;20093;-89
2022/04/19 07:29:18;;;;;;;11.93;6.13;;;11.70;96.00;;;;;;4992603;28;20050;-90
2022/04/19 07:31:46;;;;;;;10.68;6.13;;;11.90;95.10;;;;;;4993395;28;20038;-89
2022/04/19 07:34:12;;;;;;;12.35;6.07;;;12.00;95.20;;;;;;4993401;28;20473;-89
2022/04/19 07:36:40;;;;;;;14.63;6.30;;;12.10;95.20;;;;;;4993393;28;20101;-89
2022/04/19 07:39:12;;;;;;;12.68;6.65;;;12.20;95.40;;;;;;4993659;28;20066;-90
2022/04/19 07:41:38;;;;;;;10.65;5.65;;;12.30;95.70;;;;;;4992936;28;20077;-90
2022/04/19 07:44:05;;;;;;;12.88;5.95;;;12.40;94.80;;;;;;4990810;28;20085;-90
2022/04/19 07:46:34;;;;;;;13.52;6.03;;;12.50;94.00;;;;;;4989537;28;20043;-90
2022/04/19 07:49:00;;;;;;;12.57;6.63;;;12.70;94.60;;;;;;4992871;28;20034;-90
2022/04/19 07:51:26;;;;;;;13.60;6.70;;;12.80;94.50;;;;;;4992601;28;20099;-89
2022/04/19 07:53:52;;;;;;;11.52;5.60;;;12.90;94.30;;;;;;4992960;28;20042;-90
2022/04/19 07:56:18;;;;;;;10.40;6.15;;;13.00;94.70;;;;;;4976454;28;20039;-90
2022/04/19 07:58:47;;;;;;;10.50;5.65;;;13.20;94.80;;;;;;4991465;28;20046;-91
2022/04/19 08:01:13;;;;;;;12.13;6.45;;;13.30;94.00;;;;;;4992281;28;20049;-90
2022/04/19 08:03:40;;;;;;;9.57;5.68;;;13.40;93.10;;;;;;4992196;28;20038;-91
2022/04/19 08:06:05;;;;;;;10.93;5.95;;;13.50;92.90;;;;;;5002166;28;20064;-90
2022/04/19 08:08:35;;;;;;;12.13;6.05;;;13.70;92.20;;;;;;4989959;28;20038;-90
2022/04/19 08:11:00;;;;;;;9.35;5.63;;;13.80;91.60;;;;;;4997381;28;20048;-90
2022/04/19 08:13:26;;;;;;;14.73;7.10;;;13.90;90.70;;;;;;4990699;28;20042;-90
2022/04/19 08:15:51;;;;;;;11.93;6.68;;;14.00;90.50;;;;;;4994032;28;20074;-90
2022/04/19 08:18:18;;;;;;;10.50;5.85;;;14.10;90.50;;;;;;4993556;28;20042;-90
2022/04/19 08:20:45;;;;;;;11.07;6.13;;;14.20;87.50;;;;;;4976283;28;20508;-90
2022/04/19 08:23:11;;;;;;;12.07;6.32;;;14.30;87.00;;;;;;4975079;28;20042;-90
2022/04/19 08:25:38;;;;;;;11.18;6.07;;;14.50;87.10;;;;;;4992201;28;20043;-91
2022/04/19 08:28:04;;;;;;;10.60;6.50;;;14.60;85.20;;;;;;4992189;28;20057;-90
2022/04/19 08:30:30;;;;;;;11.30;7.28;;;14.60;84.20;;;;;;4975718;28;20656;-91
2022/04/19 08:32:56;;;;;;;10.88;6.10;;;14.70;86.00;;;;;;4992178;28;20038;-90
2022/04/19 08:35:22;;;;;;;10.95;6.28;;;14.80;84.60;;;;;;4975875;28;20046;-91
2022/04/19 08:37:48;;;;;;;12.40;7.00;;;14.90;84.50;;;;;;4975778;28;20049;-91
2022/04/19 08:40:14;;;;;;;12.13;6.57;;;14.90;83.20;;;;;;4991787;28;20046;-91
2022/04/19 08:42:40;;;;;;;11.02;5.70;;;15.00;82.70;;;;;;4991890;28;20392;-91
2022/04/19 08:45:09;;;;;;;9.98;5.43;;;15.00;80.70;;;;;;4975631;28;20057;-91
2022/04/19 08:47:40;;;;;;;9.90;5.95;;;15.20;80.90;;;;;;5006630;28;20491;-90
2022/04/19 08:50:13;;;;;;;10.35;5.53;;;15.30;79.20;;;;;;4994920;28;20038;-91
2022/04/19 08:52:39;;;;;;;;;;;15.30;77.10;;;;;;4992306;28;20049;-91
2022/04/19 08:57:50;;;;;;;9.95;5.50;;;15.40;78.30;;;;;;4991514;28;20057;-92
2022/04/19 09:00:17;;;;;;;9.77;4.75;;;15.50;75.40;;;;;;4990602;28;20042;-91
2022/04/19 09:02:44;;;;;;;11.68;7.10;;;15.60;73.40;;;;;;4991235;28;20053;-90
2022/04/19 09:05:19;;;;;;;11.00;5.25;;;15.70;72.10;;;;;;4991634;28;20043;-91
2022/04/19 09:07:46;;;;;;;7.90;3.70;;;15.80;70.00;;;;;;4989681;28;20050;-91
2022/04/19 09:10:17;;;;;;;7.78;3.25;;;15.90;69.20;;;;;;4990283;28;20112;-90
2022/04/19 09:12:56;;;;;;;7.60;3.20;;;16.00;67.90;;;;;;4990963;28;20204;-91
2022/04/19 09:15:22;;;;;;;8.82;3.00;;;16.10;67.30;;;;;;4990632;28;20628;-91
2022/04/19 09:17:48;;;;;;;7.25;3.25;;;16.20;64.40;;;;;;4990667;28;20042;-91
2022/04/19 09:20:15;;;;;;;8.20;3.58;;;16.30;63.70;;;;;;4990432;28;20415;-90
2022/04/19 09:22:43;;;;;;;7.97;3.67;;;16.40;64.80;;;;;;4990685;28;20543;-90
2022/04/19 09:25:15;;;;;;;7.05;3.00;;;16.50;64.00;;;;;;4991576;28;20043;-90
2022/04/19 09:27:45;;;;;;;9.02;4.00;;;16.60;63.20;;;;;;4991522;28;20092;-91
2022/04/19 09:30:23;;;;;;;7.55;3.28;;;16.70;60.40;;;;;;4990749;28;20038;-91
2022/04/19 09:33:18;;;;;;;6.32;2.83;;;16.80;58.90;;;;;;4991271;28;20038;-91
2022/04/19 09:35:47;;;;;;;6.53;2.22;;;16.90;58.20;;;;;;4991363;28;20280;-91
2022/04/19 09:38:13;;;;;;;6.43;2.55;;;16.90;55.50;;;;;;4991900;28;20133;-90
2022/04/19 09:40:42;;;;;;;6.82;2.50;;;17.00;54.80;;;;;;4991036;28;20120;-90
2022/04/19 09:43:12;;;;;;;7.93;2.30;;;17.00;52.10;;;;;;4991023;28;20030;-90
2022/04/19 09:45:58;;;;;;;6.60;2.10;;;17.10;52.50;;;;;;4990936;28;20133;-90
2022/04/19 09:48:31;;;;;;;8.15;2.67;;;17.30;53.60;;;;;;4991073;28;20531;-91
2022/04/19 09:51:03;;;;;;;7.10;2.90;;;17.30;52.60;;;;;;4990253;28;20038;-91
2022/04/19 09:53:30;;;;;;;;;;;17.40;52.80;;;;;;4991089;28;20406;-91
2022/04/19 09:55:58;;;;;;;8.48;3.92;;;17.40;54.10;;;;;;4990765;28;19944;-91
2022/04/19 09:58:25;;;;;;;7.80;3.40;;;17.50;53.80;;;;;;5007404;28;20049;-90
2022/04/19 10:00:51;;;;;;;9.07;3.50;;;17.60;54.70;;;;;;4990690;28;20038;-90
2022/04/19 10:08:50;;;;;;;8.57;2.83;;;17.90;52.80;;;;;;4990538;28;20499;-91
2022/04/19 10:11:17;;;;;;;5.78;2.30;;;18.00;52.30;;;;;;4990326;28;20043;-91
2022/04/19 10:13:44;;;;;;;7.85;1.90;;;18.10;51.30;;;;;;4974366;28;20634;-90
2022/04/19 10:16:12;;;;;;;5.80;1.73;;;18.10;49.40;;;;;;4990735;28;20038;-91
2022/04/19 10:18:38;;;;;;;5.20;1.80;;;18.20;48.30;;;;;;4990509;28;20046;-91
2022/04/19 10:21:10;;;;;;;5.82;2.10;;;18.20;47.90;;;;;;4989855;28;20436;-89
2022/04/19 10:23:39;;;;;;;5.38;1.80;;;18.30;49.20;;;;;;4988915;28;20066;-91
2022/04/19 10:26:24;;;;;;;5.22;2.03;;;18.30;47.50;;;;;;4990423;28;20046;-91
2022/04/19 10:28:55;;;;;;;5.88;2.45;;;18.30;48.40;;;;;;4995061;28;20080;-91
2022/04/19 10:31:26;;;;;;;7.13;2.10;;;18.40;49.00;;;;;;5004527;28;20041;-91
2022/04/19 10:33:52;;;;;;;5.47;2.15;;;18.60;48.60;;;;;;5006964;28;20038;-91
2022/04/19 10:36:38;;;;;;;7.75;2.25;;;18.70;49.30;;;;;;4992957;28;20078;-91
2022/04/19 10:39:13;;;;;;;6.10;2.63;;;18.80;47.70;;;;;;4992002;28;20081;-91
2022/04/19 10:41:55;;;;;;;7.65;2.90;;;18.80;46.90;;;;;;4993077;28;20042;-91
2022/04/19 10:44:23;;;;;;;5.68;2.45;;;18.80;46.60;;;;;;5010024;28;20109;-91
2022/04/19 10:47:02;;;;;;;8.15;3.08;;;18.90;48.00;;;;;;4993974;28;20403;-92
2022/04/19 10:49:27;;;;;;;5.18;2.00;;;19.10;47.40;;;;;;4993611;28;20044;-92
2022/04/19 10:51:59;;;;;;;5.15;1.90;;;19.10;46.60;;;;;;4993343;28;20042;-92
2022/04/19 10:55:00;;;;;;;5.03;2.03;;;19.20;46.60;;;;;;5009440;28;20088;-91
2022/04/19 11:00:27;;;;;;;5.13;1.70;;;19.40;47.50;;;;;;5000213;28;20046;-91
2022/04/19 11:02:59;;;;;;;5.45;1.70;;;19.40;47.10;;;;;;4982643;28;20044;-91
2022/04/19 11:05:35;;;;;;;6.20;1.80;;;19.50;47.00;;;;;;4986017;28;20427;-91
2022/04/19 11:08:25;;;;;;;4.43;1.60;;;19.60;46.00;;;;;;4986313;28;20041;-91
2022/04/19 11:11:02;;;;;;;4.57;1.50;;;19.60;45.80;;;;;;4981636;28;20113;-91
2022/04/19 11:13:31;;;;;;;6.93;2.25;;;19.70;45.70;;;;;;4993917;28;20050;-91
2022/04/19 11:15:57;;;;;;;9.15;2.50;;;19.70;45.30;;;;;;4993894;28;20039;-91
2022/04/19 11:18:24;;;;;;;11.00;2.58;;;19.80;45.20;;;;;;4977378;28;20491;-91
2022/04/19 11:20:51;;;;;;;6.80;1.48;;;19.90;46.00;;;;;;4993253;28;20100;-91
2022/04/19 11:23:18;;;;;;;5.68;1.40;;;20.00;45.60;;;;;;4977166;28;20121;-91
2022/04/19 11:25:45;;;;;;;4.75;1.50;;;20.00;44.80;;;;;;4993731;28;20050;-91
2022/04/19 11:28:11;;;;;;;7.80;1.60;;;20.10;45.20;;;;;;4990967;28;20035;-92
2022/04/19 11:30:57;;;;;;;8.82;1.65;;;20.10;45.50;;;;;;4976900;28;20050;-92
2022/04/19 11:33:25;;;;;;;8.57;2.15;;;20.30;44.80;;;;;;4982710;28;20058;-91
2022/04/19 11:36:00;;;;;;;5.35;1.50;;;20.30;44.80;;;;;;4993518;28;20155;-91
2022/04/19 11:38:26;;;;;;;5.13;1.50;;;20.40;44.30;;;;;;4975697;28;20065;-91
2022/04/19 11:49:07;;;;;;;5.00;1.58;;;20.80;44.00;;;;;;4987864;28;20137;-91
2022/04/19 11:51:37;;;;;;;7.25;2.00;;;20.90;45.00;;;;;;4976191;28;20126;-91
2022/04/19 11:54:04;;;;;;;5.03;1.60;;;21.00;43.60;;;;;;4976361;28;20034;-91
2022/04/19 11:56:31;;;;;;;6.43;1.50;;;21.20;43.70;;;;;;4992921;28;20571;-91
2022/04/19 11:59:01;;;;;;;4.70;1.60;;;21.30;44.20;;;;;;4992323;28;20038;-91
2022/04/19 12:01:31;;;;;;;6.40;1.88;;;21.40;44.80;;;;;;4975754;28;20065;-91
2022/04/19 12:03:56;;;;;;;9.88;1.95;;;21.50;43.60;;;;;;4992675;28;20038;-91
2022/04/19 12:06:23;;;;;;;6.63;2.10;;;21.60;43.90;;;;;;4976642;28;20042;-91
2022/04/19 12:08:51;;;;;;;6.10;2.40;;;21.70;43.90;;;;;;4992698;28;20101;-91
2022/04/19 12:11:28;;;;;;;8.38;2.42;;;21.80;42.30;;;;;;4992036;28;20500;-91
2022/04/19 12:13:54;;;;;;;7.78;1.90;;;21.80;42.10;;;;;;4992351;28;20125;-91
2022/04/19 12:16:30;;;;;;;6.15;1.70;;;21.90;43.10;;;;;;4992210;28;20046;-92
2022/04/19 12:19:00;;;;;;;8.95;2.40;;;21.90;42.80;;;;;;4992514;28;20125;-92
2022/04/19 12:21:45;;;;;;;5.03;2.10;;;22.00;42.80;;;;;;4975669;28;20042;-91
2022/04/19 12:24:21;;;;;;;7.53;2.20;;;22.10;41.70;;;;;;4991562;28;20038;-91
2022/04/19 12:27:03;;;;;;;6.13;1.70;;;22.20;41.70;;;;;;4990821;28;20495;-91
2022/04/19 12:29:29;;;;;;;4.97;1.80;;;22.20;41.90;;;;;;4993386;28;20093;-91
2022/04/19 12:32:00;;;;;;;4.75;1.80;;;22.20;41.30;;;;;;4991734;28;20050;-91
2022/04/19 12:34:37;;;;;;;4.75;1.60;;;22.30;41.60;;;;;;5028170;28;20045;-91
2022/04/19 12:37:14;;;;;;;4.78;1.63;;;22.30;40.30;;;;;;5011668;28;20096;-92
2022/04/19 12:39:40;;;;;;;4.07;1.50;;;22.40;41.30;;;;;;5000225;28;20039;-92
2022/04/19 12:42:11;;;;;;;5.78;1.65;;;22.40;39.70;;;;;;4974771;28;20038;-92
2022/04/19 12:44:38;;;;;;;12.75;2.25;;;22.50;40.30;;;;;;4991873;28;20042;-91
2022/04/19 12:47:14;;;;;;;5.82;1.67;;;22.60;40.00;;;;;;4992058;28;20046;-91
2022/04/19 12:49:47;;;;;;;5.80;1.95;;;22.70;39.50;;;;;;4991773;28;20038;-92
2022/04/19 12:52:13;;;;;;;4.05;1.70;;;22.80;40.10;;;;;;4991804;28;20038;-92
2022/04/19 12:54:41;;;;;;;6.57;1.73;;;22.90;40.30;;;;;;4991516;28;20050;-92
2022/04/19 12:57:12;;;;;;;8.50;1.80;;;23.10;39.70;;;;;;4993458;28;20508;-92
2022/04/19 12:59:38;;;;;;;6.20;2.00;;;23.30;38.50;;;;;;4992096;28;20108;-92
2022/04/19 13:02:04;;;;;;;7.18;2.30;;;23.30;38.40;;;;;;4990905;28;20647;-92
2022/04/19 13:04:30;;;;;;;6.40;2.20;;;23.40;38.60;;;;;;4991852;28;20084;-92
2022/04/19 13:12:26;;;;;;;6.78;1.98;;;23.60;37.80;;;;;;4991793;28;20042;-92
2022/04/19 13:15:00;;;;;;;5.20;2.00;;;23.70;38.90;;;;;;4991468;28;20088;-92
2022/04/19 13:17:30;;;;;;;7.13;3.10;;;23.90;38.80;;;;;;4991367;28;20404;-92
2022/04/19 13:19:56;;;;;;;5.90;2.15;;;24.00;38.10;;;;;;4991508;28;20053;-92
2022/04/19 13:22:22;;;;;;;5.00;1.83;;;24.10;37.20;;;;;;4991378;28;20043;-92
2022/04/19 13:24:49;;;;;;;5.88;2.30;;;24.40;37.40;;;;;;4991367;28;20035;-92
2022/04/19 13:27:16;;;;;;;5.05;1.95;;;24.40;36.90;;;;;;4990526;28;20133;-92
2022/04/19 13:29:43;;;;;;;6.80;2.35;;;24.60;36.70;;;;;;4991548;28;20046;-91
2022/04/19 13:32:09;;;;;;;7.80;2.50;;;24.80;37.50;;;;;;4990100;28;20557;-92